sensor_id;sensor_type;location;lat;lon;timestamp;pressure;altitude;pressure_sealevel;temperature;humidity
63009;BME280;49099;28.428;-16.488;2023-06-14T00:01:51;98655.13;;;23.54;50.19
63009;BME280;49099;28.428;-16.488;2023-06-14T00:04:18;98657.75;;;23.51;50.40
63009;BME280;49099;28.428;-16.488;2023-06-14T00:06:47;98648.97;;;23.42;51.67
63009;BME280;49099;28.428;-16.488;2023-06-14T00:09:17;98655.16;;;23.42;51.88
63009;BME280;49099;28.428;-16.488;2023-06-14T00:11:44;98646.59;;;23.40;52.14
63009;BME280;49099;28.428;-16.488;2023-06-14T00:14:11;98650.44;;;23.39;52.53
63009;BME280;49099;28.428;-16.488;2023-06-14T00:16:40;98650.44;;;23.39;52.85
63009;BME280;49099;28.428;-16.488;2023-06-14T00:19:09;98641.19;;;23.40;53.20
63009;BME280;49099;28.428;-16.488;2023-06-14T00:21:37;98645.94;;;23.43;53.21
63009;BME280;49099;28.428;-16.488;2023-06-14T00:24:05;98647.75;;;23.39;53.51
63009;BME280;49099;28.428;-16.488;2023-06-14T00:26:32;98644.16;;;23.35;54.04
63009;BME280;49099;28.428;-16.488;2023-06-14T00:28:59;98643.47;;;23.38;53.82
63009;BME280;49099;28.428;-16.488;2023-06-14T00:31:27;98643.47;;;23.38;53.79
63009;BME280;49099;28.428;-16.488;2023-06-14T00:33:54;98638.53;;;23.28;54.52
63009;BME280;49099;28.428;-16.488;2023-06-14T00:36:22;98641.78;;;23.33;54.51
63009;BME280;49099;28.428;-16.488;2023-06-14T00:38:49;98637.63;;;23.36;54.50
63009;BME280;49099;28.428;-16.488;2023-06-14T00:41:16;98631.66;;;23.30;54.54
63009;BME280;49099;28.428;-16.488;2023-06-14T00:43:44;98633.34;;;23.35;54.74
63009;BME280;49099;28.428;-16.488;2023-06-14T00:46:11;98633.34;;;23.35;54.79
63009;BME280;49099;28.428;-16.488;2023-06-14T00:48:39;98639.53;;;23.35;54.76
63009;BME280;49099;28.428;-16.488;2023-06-14T00:51:07;98636.97;;;23.27;55.10
63009;BME280;49099;28.428;-16.488;2023-06-14T00:53:34;98641.28;;;23.16;55.33
63009;BME280;49099;28.428;-16.488;2023-06-14T00:56:03;98642.84;;;23.17;55.34
63009;BME280;49099;28.428;-16.488;2023-06-14T00:58:30;98647.34;;;23.25;55.33
63009;BME280;49099;28.428;-16.488;2023-06-14T01:00:58;98646.13;;;23.22;55.34
63009;BME280;49099;28.428;-16.488;2023-06-14T01:03:25;98649.16;;;23.21;55.42
63009;BME280;49099;28.428;-16.488;2023-06-14T01:05:59;98640.59;;;23.19;55.80
63009;BME280;49099;28.428;-16.488;2023-06-14T01:08:47;98641.28;;;23.16;55.66
63009;BME280;49099;28.428;-16.488;2023-06-14T01:11:26;98633.66;;;23.05;56.03
63009;BME280;49099;28.428;-16.488;2023-06-14T01:13:55;98632.88;;;23.05;56.03
63009;BME280;49099;28.428;-16.488;2023-06-14T01:16:23;98625.19;;;23.07;56.25
63009;BME280;49099;28.428;-16.488;2023-06-14T01:18:52;98619.44;;;23.08;56.08
63009;BME280;49099;28.428;-16.488;2023-06-14T01:21:24;98613.16;;;23.04;56.13
63009;BME280;49099;28.428;-16.488;2023-06-14T01:23:52;98613.16;;;23.04;55.74
63009;BME280;49099;28.428;-16.488;2023-06-14T01:26:22;98599.94;;;23.03;55.67
63009;BME280;49099;28.428;-16.488;2023-06-14T01:28:50;98599.44;;;22.85;56.03
63009;BME280;49099;28.428;-16.488;2023-06-14T01:31:20;98597.63;;;22.77;55.61
63009;BME280;49099;28.428;-16.488;2023-06-14T01:33:51;98598.09;;;22.67;55.60
63009;BME280;49099;28.428;-16.488;2023-06-14T01:36:19;98597.66;;;22.65;55.50
63009;BME280;49099;28.428;-16.488;2023-06-14T01:38:48;98586.38;;;22.63;55.71
63009;BME280;49099;28.428;-16.488;2023-06-14T01:41:18;98585.25;;;22.64;55.62
63009;BME280;49099;28.428;-16.488;2023-06-14T01:43:48;98580.97;;;22.63;55.53
63009;BME280;49099;28.428;-16.488;2023-06-14T01:46:17;98580.53;;;22.73;55.54
63009;BME280;49099;28.428;-16.488;2023-06-14T01:48:44;98578.59;;;22.73;55.58
63009;BME280;49099;28.428;-16.488;2023-06-14T01:51:12;98578.69;;;22.77;55.32
63009;BME280;49099;28.428;-16.488;2023-06-14T01:53:39;98575.44;;;22.71;55.51
63009;BME280;49099;28.428;-16.488;2023-06-14T01:56:06;98574.50;;;22.79;55.69
63009;BME280;49099;28.428;-16.488;2023-06-14T01:58:34;98575.53;;;22.87;55.40
63009;BME280;49099;28.428;-16.488;2023-06-14T02:01:02;98567.88;;;22.89;55.43
63009;BME280;49099;28.428;-16.488;2023-06-14T02:03:29;98576.19;;;22.84;54.51
63009;BME280;49099;28.428;-16.488;2023-06-14T02:05:56;98566.63;;;22.87;55.06
63009;BME280;49099;28.428;-16.488;2023-06-14T02:08:24;98565.50;;;22.88;55.12
63009;BME280;49099;28.428;-16.488;2023-06-14T02:10:51;98556.59;;;22.87;54.94
63009;BME280;49099;28.428;-16.488;2023-06-14T02:13:18;98562.00;;;22.87;55.18
63009;BME280;49099;28.428;-16.488;2023-06-14T02:15:46;98571.81;;;22.92;55.22
63009;BME280;49099;28.428;-16.488;2023-06-14T02:18:13;98567.63;;;22.94;54.95
63009;BME280;49099;28.428;-16.488;2023-06-14T02:20:40;98558.41;;;22.83;55.46
63009;BME280;49099;28.428;-16.488;2023-06-14T02:23:07;98555.25;;;22.81;55.60
63009;BME280;49099;28.428;-16.488;2023-06-14T02:25:35;98554.34;;;22.77;55.51
63009;BME280;49099;28.428;-16.488;2023-06-14T02:28:02;98553.47;;;22.73;55.67
63009;BME280;49099;28.428;-16.488;2023-06-14T02:30:29;98557.97;;;22.69;55.86
63009;BME280;49099;28.428;-16.488;2023-06-14T02:32:57;98550.31;;;22.71;55.36
63009;BME280;49099;28.428;-16.488;2023-06-14T02:35:26;98549.66;;;22.74;55.04
63009;BME280;49099;28.428;-16.488;2023-06-14T02:37:54;98546.28;;;22.65;55.24
63009;BME280;49099;28.428;-16.488;2023-06-14T02:40:21;98548.09;;;22.61;55.08
63009;BME280;49099;28.428;-16.488;2023-06-14T02:42:48;98551.03;;;22.56;55.31
63009;BME280;49099;28.428;-16.488;2023-06-14T02:45:15;98549.00;;;22.52;55.29
63009;BME280;49099;28.428;-16.488;2023-06-14T02:47:43;98539.78;;;22.53;55.63
63009;BME280;49099;28.428;-16.488;2023-06-14T02:50:12;98537.50;;;22.56;55.27
63009;BME280;49099;28.428;-16.488;2023-06-14T02:52:40;98535.16;;;22.54;55.70
63009;BME280;49099;28.428;-16.488;2023-06-14T02:55:08;98541.78;;;22.57;55.62
63009;BME280;49099;28.428;-16.488;2023-06-14T02:57:36;98539.53;;;22.59;55.94
63009;BME280;49099;28.428;-16.488;2023-06-14T03:00:04;98530.75;;;22.62;55.99
63009;BME280;49099;28.428;-16.488;2023-06-14T03:02:32;98534.13;;;22.59;56.11
63009;BME280;49099;28.428;-16.488;2023-06-14T03:04:59;98524.91;;;22.60;56.17
63009;BME280;49099;28.428;-16.488;2023-06-14T03:07:28;98523.41;;;22.62;55.98
63009;BME280;49099;28.428;-16.488;2023-06-14T03:09:56;98521.50;;;22.63;55.95
63009;BME280;49099;28.428;-16.488;2023-06-14T03:12:23;98527.69;;;22.63;55.70
63009;BME280;49099;28.428;-16.488;2023-06-14T03:14:51;98516.00;;;22.59;55.68
63009;BME280;49099;28.428;-16.488;2023-06-14T03:17:18;98525.56;;;22.57;55.95
63009;BME280;49099;28.428;-16.488;2023-06-14T03:19:46;98520.16;;;22.57;55.65
63009;BME280;49099;28.428;-16.488;2023-06-14T03:22:13;98513.72;;;22.61;55.71
63009;BME280;49099;28.428;-16.488;2023-06-14T03:24:41;98509.91;;;22.62;55.65
63009;BME280;49099;28.428;-16.488;2023-06-14T03:27:08;98507.97;;;22.63;55.51
63009;BME280;49099;28.428;-16.488;2023-06-14T03:29:37;98506.75;;;22.60;55.54
63009;BME280;49099;28.428;-16.488;2023-06-14T03:32:04;98505.63;;;22.61;55.71
63009;BME280;49099;28.428;-16.488;2023-06-14T03:34:31;98509.81;;;22.59;55.60
63009;BME280;49099;28.428;-16.488;2023-06-14T03:36:58;98496.53;;;22.53;55.38
63009;BME280;49099;28.428;-16.488;2023-06-14T03:39:26;98491.59;;;22.43;55.57
63009;BME280;49099;28.428;-16.488;2023-06-14T03:41:53;98495.22;;;22.35;55.89
63009;BME280;49099;28.428;-16.488;2023-06-14T03:44:20;98498.03;;;22.39;55.48
63009;BME280;49099;28.428;-16.488;2023-06-14T03:46:48;98501.84;;;22.38;55.16
63009;BME280;49099;28.428;-16.488;2023-06-14T03:49:15;98496.09;;;22.39;54.93
63009;BME280;49099;28.428;-16.488;2023-06-14T03:51:43;98498.22;;;22.46;54.73
63009;BME280;49099;28.428;-16.488;2023-06-14T03:54:11;98492.03;;;22.45;54.69
63009;BME280;49099;28.428;-16.488;2023-06-14T03:56:59;98491.81;;;22.50;53.96
63009;BME280;49099;28.428;-16.488;2023-06-14T03:59:26;98484.72;;;22.46;53.96
63009;BME280;49099;28.428;-16.488;2023-06-14T04:01:54;98488.13;;;22.43;54.72
63009;BME280;49099;28.428;-16.488;2023-06-14T04:04:22;98495.53;;;22.46;54.14
63009;BME280;49099;28.428;-16.488;2023-06-14T04:06:55;98489.13;;;22.38;52.80
63009;BME280;49099;28.428;-16.488;2023-06-14T04:09:27;98494.31;;;22.31;53.33
63009;BME280;49099;28.428;-16.488;2023-06-14T04:11:55;98498.38;;;22.37;53.35
63009;BME280;49099;28.428;-16.488;2023-06-14T04:14:22;98500.38;;;22.40;53.84
63009;BME280;49099;28.428;-16.488;2023-06-14T04:16:50;98501.63;;;22.43;53.74
63009;BME280;49099;28.428;-16.488;2023-06-14T04:19:17;98506.47;;;22.49;54.13
63009;BME280;49099;28.428;-16.488;2023-06-14T04:21:44;98497.22;;;22.50;54.20
63009;BME280;49099;28.428;-16.488;2023-06-14T04:24:11;98496.75;;;22.48;54.61
63009;BME280;49099;28.428;-16.488;2023-06-14T04:26:44;98496.44;;;22.50;54.70
63009;BME280;49099;28.428;-16.488;2023-06-14T04:29:12;98490.25;;;22.49;54.86
63009;BME280;49099;28.428;-16.488;2023-06-14T04:31:43;98492.81;;;22.46;54.85
63009;BME280;49099;28.428;-16.488;2023-06-14T04:34:12;98489.47;;;22.37;55.40
63009;BME280;49099;28.428;-16.488;2023-06-14T04:36:45;98492.88;;;22.34;55.67
63009;BME280;49099;28.428;-16.488;2023-06-14T04:39:20;98478.22;;;22.35;55.79
63009;BME280;49099;28.428;-16.488;2023-06-14T04:41:48;98485.09;;;22.32;56.06
63009;BME280;49099;28.428;-16.488;2023-06-14T04:44:19;98495.78;;;22.29;56.18
63009;BME280;49099;28.428;-16.488;2023-06-14T04:46:48;98492.41;;;22.32;56.15
63009;BME280;49099;28.428;-16.488;2023-06-14T04:49:16;98490.47;;;22.32;55.71
63009;BME280;49099;28.428;-16.488;2023-06-14T04:51:45;98479.38;;;22.21;55.86
63009;BME280;49099;28.428;-16.488;2023-06-14T04:54:13;98481.94;;;22.30;55.87
63009;BME280;49099;28.428;-16.488;2023-06-14T04:56:43;98489.16;;;22.26;56.08
63009;BME280;49099;28.428;-16.488;2023-06-14T04:59:11;98489.88;;;22.11;56.40
63009;BME280;49099;28.428;-16.488;2023-06-14T05:01:40;98482.19;;;22.13;56.23
63009;BME280;49099;28.428;-16.488;2023-06-14T05:04:08;98486.13;;;22.15;56.12
63009;BME280;49099;28.428;-16.488;2023-06-14T05:06:35;98481.50;;;22.16;56.23
63009;BME280;49099;28.428;-16.488;2023-06-14T05:09:03;98469.81;;;22.12;56.21
63009;BME280;49099;28.428;-16.488;2023-06-14T05:11:30;98477.00;;;22.20;55.90
63009;BME280;49099;28.428;-16.488;2023-06-14T05:13:57;98480.38;;;22.29;55.33
63009;BME280;49099;28.428;-16.488;2023-06-14T05:16:25;98485.00;;;22.29;55.01
63009;BME280;49099;28.428;-16.488;2023-06-14T05:18:54;98486.47;;;22.26;55.25
63009;BME280;49099;28.428;-16.488;2023-06-14T05:21:22;98483.41;;;22.28;54.43
63009;BME280;49099;28.428;-16.488;2023-06-14T05:23:49;98487.47;;;22.21;54.31
63009;BME280;49099;28.428;-16.488;2023-06-14T05:26:17;98487.59;;;22.13;54.22
63009;BME280;49099;28.428;-16.488;2023-06-14T05:28:45;98492.56;;;22.11;54.35
63009;BME280;49099;28.428;-16.488;2023-06-14T05:31:12;98501.31;;;22.08;54.27
63009;BME280;49099;28.428;-16.488;2023-06-14T05:33:39;98502.66;;;22.02;54.22
63009;BME280;49099;28.428;-16.488;2023-06-14T05:36:07;98504.69;;;22.05;54.18
63009;BME280;49099;28.428;-16.488;2023-06-14T05:38:34;98499.41;;;21.96;54.46
63009;BME280;49099;28.428;-16.488;2023-06-14T05:41:01;98500.63;;;21.98;54.78
63009;BME280;49099;28.428;-16.488;2023-06-14T05:43:28;98505.16;;;21.94;54.77
63009;BME280;49099;28.428;-16.488;2023-06-14T05:45:56;98514.81;;;21.95;54.86
63009;BME280;49099;28.428;-16.488;2023-06-14T05:48:23;98509.31;;;21.92;55.31
63009;BME280;49099;28.428;-16.488;2023-06-14T05:50:50;98515.47;;;21.92;54.81
63009;BME280;49099;28.428;-16.488;2023-06-14T05:53:17;98511.56;;;21.90;55.76
63009;BME280;49099;28.428;-16.488;2023-06-14T05:55:44;98511.44;;;21.86;54.99
63009;BME280;49099;28.428;-16.488;2023-06-14T05:58:11;98512.13;;;21.83;55.11
63009;BME280;49099;28.428;-16.488;2023-06-14T06:00:40;98513.69;;;21.84;55.02
63009;BME280;49099;28.428;-16.488;2023-06-14T06:03:07;98525.41;;;21.88;55.10
63009;BME280;49099;28.428;-16.488;2023-06-14T06:05:38;98515.94;;;21.82;54.62
63009;BME280;49099;28.428;-16.488;2023-06-14T06:08:05;98523.94;;;21.91;55.25
63009;BME280;49099;28.428;-16.488;2023-06-14T06:10:32;98526.28;;;21.92;55.39
63009;BME280;49099;28.428;-16.488;2023-06-14T06:12:59;98529.34;;;22.03;55.19
63009;BME280;49099;28.428;-16.488;2023-06-14T06:15:27;98530.81;;;22.13;55.37
63009;BME280;49099;28.428;-16.488;2023-06-14T06:17:54;98535.53;;;22.16;55.30
63009;BME280;49099;28.428;-16.488;2023-06-14T06:20:23;98548.59;;;22.26;55.06
63009;BME280;49099;28.428;-16.488;2023-06-14T06:22:59;98545.91;;;22.26;53.33
63009;BME280;49099;28.428;-16.488;2023-06-14T06:25:28;98543.53;;;22.24;54.02
63009;BME280;49099;28.428;-16.488;2023-06-14T06:27:55;98539.59;;;22.22;53.04
63009;BME280;49099;28.428;-16.488;2023-06-14T06:30:25;98546.56;;;22.23;53.90
63009;BME280;49099;28.428;-16.488;2023-06-14T06:32:53;98545.66;;;22.31;54.30
63009;BME280;49099;28.428;-16.488;2023-06-14T06:35:20;98547.00;;;22.37;53.50
63009;BME280;49099;28.428;-16.488;2023-06-14T06:37:47;98545.66;;;22.31;53.22
63009;BME280;49099;28.428;-16.488;2023-06-14T06:40:14;98539.13;;;22.32;53.28
63009;BME280;49099;28.428;-16.488;2023-06-14T06:42:42;98548.47;;;22.35;53.36
63009;BME280;49099;28.428;-16.488;2023-06-14T06:45:09;98541.59;;;22.37;53.01
63009;BME280;49099;28.428;-16.488;2023-06-14T06:47:36;98548.56;;;22.38;53.25
63009;BME280;49099;28.428;-16.488;2023-06-14T06:50:04;98546.22;;;22.37;53.29
63009;BME280;49099;28.428;-16.488;2023-06-14T06:52:31;98539.34;;;22.39;52.97
63009;BME280;49099;28.428;-16.488;2023-06-14T06:54:58;98545.53;;;22.40;53.15
63009;BME280;49099;28.428;-16.488;2023-06-14T06:57:26;98538.47;;;22.35;53.16
63009;BME280;49099;28.428;-16.488;2023-06-14T06:59:53;98545.88;;;22.38;52.48
63009;BME280;49099;28.428;-16.488;2023-06-14T07:02:20;98539.59;;;22.34;52.57
63009;BME280;49099;28.428;-16.488;2023-06-14T07:04:47;98543.41;;;22.33;52.34
63009;BME280;49099;28.428;-16.488;2023-06-14T07:07:14;98545.31;;;22.33;52.64
63009;BME280;49099;28.428;-16.488;2023-06-14T07:09:42;98547.00;;;22.37;52.45
63009;BME280;49099;28.428;-16.488;2023-06-14T07:12:09;98536.09;;;22.34;52.89
63009;BME280;49099;28.428;-16.488;2023-06-14T07:14:37;98544.88;;;22.43;52.31
63009;BME280;49099;28.428;-16.488;2023-06-14T07:17:04;98544.09;;;22.42;52.71
63009;BME280;49099;28.428;-16.488;2023-06-14T07:19:31;98545.53;;;22.40;52.68
63009;BME280;49099;28.428;-16.488;2023-06-14T07:21:59;98549.72;;;22.37;53.46
63009;BME280;49099;28.428;-16.488;2023-06-14T07:24:27;98546.91;;;22.34;52.96
63009;BME280;49099;28.428;-16.488;2023-06-14T07:26:55;98543.66;;;22.28;52.52
63009;BME280;49099;28.428;-16.488;2023-06-14T07:29:23;98542.72;;;22.24;52.71
63009;BME280;49099;28.428;-16.488;2023-06-14T07:31:50;98550.63;;;22.29;52.91
63009;BME280;49099;28.428;-16.488;2023-06-14T07:34:17;98546.09;;;22.33;52.90
63009;BME280;49099;28.428;-16.488;2023-06-14T07:36:44;98552.75;;;22.36;52.27
63009;BME280;49099;28.428;-16.488;2023-06-14T07:39:12;98559.81;;;22.40;53.00
63009;BME280;49099;28.428;-16.488;2023-06-14T07:41:39;98556.56;;;22.47;52.78
63009;BME280;49099;28.428;-16.488;2023-06-14T07:44:06;98560.25;;;22.55;53.04
63009;BME280;49099;28.428;-16.488;2023-06-14T07:46:33;98559.13;;;22.56;53.10
63009;BME280;49099;28.428;-16.488;2023-06-14T07:49:01;98559.59;;;22.58;53.67
63009;BME280;49099;28.428;-16.488;2023-06-14T07:51:28;98569.28;;;22.59;53.67
63009;BME280;49099;28.428;-16.488;2023-06-14T07:53:56;98575.56;;;22.63;53.89
63009;BME280;49099;28.428;-16.488;2023-06-14T07:56:23;98575.22;;;22.64;53.26
63009;BME280;49099;28.428;-16.488;2023-06-14T07:58:50;98571.94;;;22.71;52.86
63009;BME280;49099;28.428;-16.488;2023-06-14T08:01:17;98573.72;;;22.79;53.28
63009;BME280;49099;28.428;-16.488;2023-06-14T08:03:46;98576.91;;;22.81;55.29
63009;BME280;49099;28.428;-16.488;2023-06-14T08:06:13;98587.00;;;22.84;54.44
63009;BME280;49099;28.428;-16.488;2023-06-14T08:08:40;98581.72;;;22.88;56.31
63009;BME280;49099;28.428;-16.488;2023-06-14T08:11:07;98590.41;;;22.93;55.38
63009;BME280;49099;28.428;-16.488;2023-06-14T08:13:34;98594.66;;;23.06;56.87
63009;BME280;49099;28.428;-16.488;2023-06-14T08:16:02;98587.50;;;23.14;55.29
63009;BME280;49099;28.428;-16.488;2023-06-14T08:18:31;98603.69;;;23.26;57.30
63009;BME280;49099;28.428;-16.488;2023-06-14T08:20:59;98599.59;;;23.32;57.51
63009;BME280;49099;28.428;-16.488;2023-06-14T08:23:26;98615.31;;;23.27;57.67
63009;BME280;49099;28.428;-16.488;2023-06-14T08:25:53;98619.53;;;23.40;57.64
63009;BME280;49099;28.428;-16.488;2023-06-14T08:28:21;98616.66;;;23.49;57.33
63009;BME280;49099;28.428;-16.488;2023-06-14T08:30:48;98622.88;;;23.49;56.24
63009;BME280;49099;28.428;-16.488;2023-06-14T08:33:15;98618.88;;;23.43;57.17
63009;BME280;49099;28.428;-16.488;2023-06-14T08:35:43;98626.31;;;23.34;58.41
63009;BME280;49099;28.428;-16.488;2023-06-14T08:38:11;98627.72;;;23.28;57.92
63009;BME280;49099;28.428;-16.488;2023-06-14T08:40:40;98635.38;;;23.26;57.97
63009;BME280;49099;28.428;-16.488;2023-06-14T08:43:09;98633.81;;;23.25;57.12
63009;BME280;49099;28.428;-16.488;2023-06-14T08:45:36;98636.44;;;23.21;57.25
63009;BME280;49099;28.428;-16.488;2023-06-14T08:48:07;98635.50;;;23.29;57.56
63009;BME280;49099;28.428;-16.488;2023-06-14T08:50:36;98643.50;;;23.26;59.03
63009;BME280;49099;28.428;-16.488;2023-06-14T08:53:11;98641.28;;;23.16;58.28
63009;BME280;49099;28.428;-16.488;2023-06-14T08:55:46;98637.03;;;23.02;59.30
63009;BME280;49099;28.428;-16.488;2023-06-14T08:58:14;98632.09;;;22.92;60.15
63009;BME280;49099;28.428;-16.488;2023-06-14T09:00:42;98637.19;;;22.82;59.87
63009;BME280;49099;28.428;-16.488;2023-06-14T09:03:10;98638.75;;;22.83;60.80
63009;BME280;49099;28.428;-16.488;2023-06-14T09:05:40;98642.47;;;22.78;60.48
63009;BME280;49099;28.428;-16.488;2023-06-14T09:08:07;98639.53;;;22.83;60.16
63009;BME280;49099;28.428;-16.488;2023-06-14T09:10:35;98642.69;;;22.97;58.18
63009;BME280;49099;28.428;-16.488;2023-06-14T09:13:05;98645.59;;;23.04;58.85
63009;BME280;49099;28.428;-16.488;2023-06-14T09:15:33;98639.50;;;23.07;59.00
63009;BME280;49099;28.428;-16.488;2023-06-14T09:18:01;98639.50;;;23.07;59.42
63009;BME280;49099;28.428;-16.488;2023-06-14T09:20:30;98634.88;;;23.08;59.00
63009;BME280;49099;28.428;-16.488;2023-06-14T09:22:58;98643.44;;;23.10;59.77
63009;BME280;49099;28.428;-16.488;2023-06-14T09:25:25;98641.03;;;23.21;58.57
63009;BME280;49099;28.428;-16.488;2023-06-14T09:28:08;98641.69;;;23.30;58.93
63009;BME280;49099;28.428;-16.488;2023-06-14T09:30:37;98649.56;;;23.35;57.90
63009;BME280;49099;28.428;-16.488;2023-06-14T09:33:05;98645.16;;;23.43;58.97
63009;BME280;49099;28.428;-16.488;2023-06-14T09:35:32;98643.84;;;23.52;57.78
63009;BME280;49099;28.428;-16.488;2023-06-14T09:37:59;98652.06;;;23.56;57.99
63009;BME280;49099;28.428;-16.488;2023-06-14T09:40:27;98652.53;;;23.58;58.06
63009;BME280;49099;28.428;-16.488;2023-06-14T09:42:55;98652.53;;;23.58;58.77
63009;BME280;49099;28.428;-16.488;2023-06-14T09:45:26;98651.63;;;23.54;58.82
63009;BME280;49099;28.428;-16.488;2023-06-14T09:47:58;98656.47;;;23.60;58.69
63009;BME280;49099;28.428;-16.488;2023-06-14T09:50:28;98654.75;;;23.68;58.44
63009;BME280;49099;28.428;-16.488;2023-06-14T09:53:01;98652.13;;;23.72;58.25
63009;BME280;49099;28.428;-16.488;2023-06-14T09:55:31;98654.47;;;23.73;57.66
63009;BME280;49099;28.428;-16.488;2023-06-14T09:58:04;98659.63;;;23.62;57.94
63009;BME280;49099;28.428;-16.488;2023-06-14T10:00:35;98658.94;;;23.66;57.70
63009;BME280;49099;28.428;-16.488;2023-06-14T10:03:11;98666.81;;;23.71;57.71
63009;BME280;49099;28.428;-16.488;2023-06-14T10:05:40;98661.16;;;23.76;58.27
63009;BME280;49099;28.428;-16.488;2023-06-14T10:08:10;98666.81;;;23.71;57.38
63009;BME280;49099;28.428;-16.488;2023-06-14T10:10:40;98669.16;;;23.72;56.65
63009;BME280;49099;28.428;-16.488;2023-06-14T10:13:07;98660.09;;;23.80;56.86
63009;BME280;49099;28.428;-16.488;2023-06-14T10:15:50;98666.75;;;23.83;57.21
63009;BME280;49099;28.428;-16.488;2023-06-14T10:18:23;98679.41;;;23.79;57.01
63009;BME280;49099;28.428;-16.488;2023-06-14T10:24:02;98666.06;;;23.86;56.81
63009;BME280;49099;28.428;-16.488;2023-06-14T10:26:31;98668.75;;;23.86;56.87
63009;BME280;49099;28.428;-16.488;2023-06-14T10:29:07;98671.97;;;23.76;56.61
63009;BME280;49099;28.428;-16.488;2023-06-14T10:31:42;98672.94;;;23.68;57.02
63009;BME280;49099;28.428;-16.488;2023-06-14T10:34:10;98671.94;;;23.60;57.06
63009;BME280;49099;28.428;-16.488;2023-06-14T10:36:41;98666.63;;;23.63;56.44
63009;BME280;49099;28.428;-16.488;2023-06-14T10:39:17;98671.34;;;23.67;57.63
63009;BME280;49099;28.428;-16.488;2023-06-14T10:41:52;98662.97;;;23.72;57.74
63009;BME280;49099;28.428;-16.488;2023-06-14T10:46:52;98667.78;;;23.78;57.70
63009;BME280;49099;28.428;-16.488;2023-06-14T10:49:20;98667.19;;;23.85;57.87
63009;BME280;49099;28.428;-16.488;2023-06-14T10:51:51;98677.50;;;23.95;57.32
63009;BME280;49099;28.428;-16.488;2023-06-14T10:54:21;98679.38;;;24.07;56.96
63009;BME280;49099;28.428;-16.488;2023-06-14T10:56:53;98682.31;;;24.02;55.76
63009;BME280;49099;28.428;-16.488;2023-06-14T10:59:21;98676.13;;;24.01;55.83
63009;BME280;49099;28.428;-16.488;2023-06-14T11:04:48;98690.09;;;24.03;56.59
63009;BME280;49099;28.428;-16.488;2023-06-14T11:12:34;98681.03;;;24.27;55.00
63009;BME280;49099;28.428;-16.488;2023-06-14T11:15:05;98686.13;;;24.29;54.66
63009;BME280;49099;28.428;-16.488;2023-06-14T11:17:33;98691.44;;;24.25;54.59
63009;BME280;49099;28.428;-16.488;2023-06-14T11:20:10;98685.63;;;24.39;54.11
63009;BME280;49099;28.428;-16.488;2023-06-14T11:22:46;98680.38;;;24.46;53.87
63009;BME280;49099;28.428;-16.488;2023-06-14T11:25:14;98677.06;;;24.53;54.24
63009;BME280;49099;28.428;-16.488;2023-06-14T11:27:42;98677.72;;;24.65;54.03
63009;BME280;49099;28.428;-16.488;2023-06-14T11:30:11;98672.56;;;24.76;54.21
63009;BME280;49099;28.428;-16.488;2023-06-14T11:32:38;98667.03;;;24.72;54.17
63009;BME280;49099;28.428;-16.488;2023-06-14T11:35:06;98669.84;;;24.76;53.91
63009;BME280;49099;28.428;-16.488;2023-06-14T11:37:34;98668.59;;;24.73;54.36
63009;BME280;49099;28.428;-16.488;2023-06-14T11:40:04;98662.16;;;24.62;53.46
63009;BME280;49099;28.428;-16.488;2023-06-14T11:42:37;98668.88;;;24.68;53.74
63009;BME280;49099;28.428;-16.488;2023-06-14T11:45:08;98667.31;;;24.67;53.65
63009;BME280;49099;28.428;-16.488;2023-06-14T11:47:37;98665.03;;;24.69;53.91
63009;BME280;49099;28.428;-16.488;2023-06-14T11:50:07;98675.16;;;24.72;53.69
63009;BME280;49099;28.428;-16.488;2023-06-14T11:52:38;98673.69;;;24.75;53.35
63009;BME280;49099;28.428;-16.488;2023-06-14T11:55:06;98669.47;;;24.78;53.47
63009;BME280;49099;28.428;-16.488;2023-06-14T11:57:36;98670.66;;;24.96;53.24
63009;BME280;49099;28.428;-16.488;2023-06-14T12:00:11;98663.28;;;24.96;53.91
63009;BME280;49099;28.428;-16.488;2023-06-14T12:02:42;98657.50;;;24.98;53.45
63009;BME280;49099;28.428;-16.488;2023-06-14T12:05:09;98650.84;;;25.11;53.00
63009;BME280;49099;28.428;-16.488;2023-06-14T12:07:37;98659.88;;;25.15;52.36
63009;BME280;49099;28.428;-16.488;2023-06-14T12:10:07;98659.41;;;25.13;52.66
63009;BME280;49099;28.428;-16.488;2023-06-14T12:12:37;98656.41;;;24.99;53.70
63009;BME280;49099;28.428;-16.488;2023-06-14T12:15:06;98648.78;;;24.89;53.87
63009;BME280;49099;28.428;-16.488;2023-06-14T12:17:38;98657.66;;;24.86;54.39
63009;BME280;49099;28.428;-16.488;2023-06-14T12:20:09;98658.06;;;24.88;54.24
63009;BME280;49099;28.428;-16.488;2023-06-14T12:22:53;98652.06;;;24.79;54.41
63009;BME280;49099;28.428;-16.488;2023-06-14T12:25:27;98651.69;;;24.80;54.80
63009;BME280;49099;28.428;-16.488;2023-06-14T12:27:55;98655.56;;;24.79;54.17
63009;BME280;49099;28.428;-16.488;2023-06-14T12:30:23;98645.53;;;24.64;55.77
63009;BME280;49099;28.428;-16.488;2023-06-14T12:32:50;98656.31;;;24.60;55.93
63009;BME280;49099;28.428;-16.488;2023-06-14T12:35:18;98658.06;;;24.53;55.79
63009;BME280;49099;28.428;-16.488;2023-06-14T12:37:46;98660.06;;;24.56;55.86
63009;BME280;49099;28.428;-16.488;2023-06-14T12:40:13;98662.00;;;24.55;55.88
63009;BME280;49099;28.428;-16.488;2023-06-14T12:42:41;98667.97;;;24.45;54.65
63009;BME280;49099;28.428;-16.488;2023-06-14T12:45:09;98665.03;;;24.22;56.00
63009;BME280;49099;28.428;-16.488;2023-06-14T12:47:37;98663.13;;;24.23;56.19
63009;BME280;49099;28.428;-16.488;2023-06-14T12:50:05;98662.59;;;24.17;55.86
63009;BME280;49099;28.428;-16.488;2023-06-14T12:52:32;98670.28;;;24.15;56.15
63009;BME280;49099;28.428;-16.488;2023-06-14T12:55:04;98670.81;;;24.21;55.72
63009;BME280;49099;28.428;-16.488;2023-06-14T12:57:32;98669.16;;;24.32;55.10
63009;BME280;49099;28.428;-16.488;2023-06-14T13:00:02;98660.50;;;24.42;54.75
63009;BME280;49099;28.428;-16.488;2023-06-14T13:02:29;98655.78;;;24.55;54.41